Time;durP1;ratioP1;P1;durP2;ratioP2;P2;SDS_P1;SDS_P2;PMS_P1;PMS_P2;Temp;Humidity;BMP_temperature;BMP_pressure;BME280_temperature;BME280_humidity;BME280_pressure;Samples;Min_cycle;Max_cycle;Signal;HPM_P1;HPM_P2
2022/01/01 00:02:03;;;;;;;12.60;6.60;;;;;;;;;;5037216;28;20025;-59
2022/01/01 00:04:29;;;;;;;4.25;3.72;;;;;;;;;;5038719;28;20029;-59
2022/01/01 00:06:54;;;;;;;4.70;4.25;;;;;;;;;;5038725;28;20036;-59
2022/01/01 00:09:19;;;;;;;5.47;4.35;;;;;;;;;;5038066;28;20355;-59
2022/01/01 00:11:45;;;;;;;4.75;4.25;;;;;;;;;;5036750;28;20493;-59
2022/01/01 00:14:10;;;;;;;4.15;3.75;;;;;;;;;;5036366;28;20038;-57
2022/01/01 00:16:36;;;;;;;4.50;4.10;;;;;;;;;;5038191;28;20068;-57
2022/01/01 00:19:01;;;;;;;5.75;5.25;;;;;;;;;;5039557;28;20112;-58
2022/01/01 00:21:27;;;;;;;5.78;4.57;;;;;;;;;;5039827;28;20021;-58
2022/01/01 00:23:52;;;;;;;4.95;4.45;;;;;;;;;;5042201;28;20056;-58
2022/01/01 00:26:18;;;;;;;4.25;3.85;;;;;;;;;;5045297;28;20025;-59
2022/01/01 00:28:44;;;;;;;4.65;4.25;;;;;;;;;;5038559;28;20044;-58
2022/01/01 00:31:10;;;;;;;6.22;5.03;;;;;;;;;;5042651;28;20044;-58
2022/01/01 00:33:35;;;;;;;5.25;4.75;;;;;;;;;;5038029;28;20041;-58
2022/01/01 00:36:01;;;;;;;4.43;3.83;;;;;;;;;;5038896;28;20096;-58
2022/01/01 00:38:26;;;;;;;4.13;3.50;;;;;;;;;;5039906;28;20110;-58
2022/01/01 00:40:52;;;;;;;4.72;4.32;;;;;;;;;;5040557;28;20112;-58
2022/01/01 00:43:17;;;;;;;4.45;3.88;;;;;;;;;;5038427;28;20653;-58
2022/01/01 00:45:42;;;;;;;4.10;3.67;;;;;;;;;;5040771;28;20029;-58
2022/01/01 00:48:08;;;;;;;4.15;3.75;;;;;;;;;;5038311;28;20021;-58
2022/01/01 00:50:34;;;;;;;6.82;5.13;;;;;;;;;;5039966;28;20040;-57
2022/01/01 00:53:00;;;;;;;4.82;4.32;;;;;;;;;;5039547;28;20526;-57
2022/01/01 00:55:25;;;;;;;4.57;4.18;;;;;;;;;;5041414;28;20056;-58
2022/01/01 00:57:50;;;;;;;4.60;4.20;;;;;;;;;;5041721;28;20033;-58
2022/01/01 01:00:16;;;;;;;4.63;4.22;;;;;;;;;;5039408;28;20644;-58
2022/01/01 01:02:41;;;;;;;4.75;4.25;;;;;;;;;;5037898;28;20041;-58
2022/01/01 01:05:08;;;;;;;10.48;4.15;;;;;;;;;;5038193;28;20045;-58
2022/01/01 01:07:33;;;;;;;4.10;3.50;;;;;;;;;;5040770;28;20108;-58
2022/01/01 01:09:59;;;;;;;4.18;3.47;;;;;;;;;;5037280;28;20112;-58
2022/01/01 01:12:32;;;;;;;5.53;4.63;;;;;;;;;;5039750;28;20025;-58
2022/01/01 01:14:57;;;;;;;5.97;5.40;;;;;;;;;;5040402;28;20041;-58
2022/01/01 01:17:22;;;;;;;7.63;4.93;;;;;;;;;;5038069;28;20035;-58
2022/01/01 01:19:48;;;;;;;4.53;4.00;;;;;;;;;;5038207;28;20056;-58
2022/01/01 01:22:13;;;;;;;4.78;4.28;;;;;;;;;;5038856;28;20037;-58
2022/01/01 01:24:39;;;;;;;5.47;4.18;;;;;;;;;;5041891;28;20043;-58
2022/01/01 01:27:06;;;;;;;3.47;3.15;;;;;;;;;;5039604;28;20079;-58
2022/01/01 01:29:33;;;;;;;3.38;3.08;;;;;;;;;;5039027;28;20059;-58
2022/01/01 01:31:58;;;;;;;3.72;3.40;;;;;;;;;;5038881;28;20051;-58
2022/01/01 01:34:23;;;;;;;4.55;3.85;;;;;;;;;;5040121;28;20041;-58
2022/01/01 01:36:49;;;;;;;5.38;3.97;;;;;;;;;;5039049;28;20036;-58
2022/01/01 01:39:14;;;;;;;6.88;4.32;;;;;;;;;;5039691;28;20104;-59
2022/01/01 01:41:42;;;;;;;11.85;5.22;;;;;;;;;;5038994;28;20033;-59
2022/01/01 01:44:30;;;;;;;5.53;5.00;;;;;;;;;;5033489;28;20095;-59
2022/01/01 01:46:55;;;;;;;4.85;4.35;;;;;;;;;;5041484;28;20742;-59
2022/01/01 01:49:21;;;;;;;6.50;4.25;;;;;;;;;;5035672;28;20120;-59
2022/01/01 01:51:47;;;;;;;3.78;3.47;;;;;;;;;;5037852;28;20560;-59
2022/01/01 01:54:16;;;;;;;5.50;4.18;;;;;;;;;;5036742;28;20124;-59
2022/01/01 01:56:44;;;;;;;4.68;4.28;;;;;;;;;;5040753;28;20033;-58
2022/01/01 01:59:10;;;;;;;4.90;4.40;;;;;;;;;;5036798;28;20041;-59
2022/01/01 02:01:36;;;;;;;4.18;3.78;;;;;;;;;;5041809;28;20108;-59
2022/01/01 02:04:01;;;;;;;5.38;4.70;;;;;;;;;;5036864;28;20108;-59
2022/01/01 02:06:27;;;;;;;4.65;4.20;;;;;;;;;;5037061;28;20048;-58
2022/01/01 02:08:53;;;;;;;6.90;5.10;;;;;;;;;;5039853;28;20021;-58
2022/01/01 02:11:20;;;;;;;4.60;4.20;;;;;;;;;;5037085;28;20424;-58
2022/01/01 02:18:46;;;;;;;9.32;4.53;;;;;;;;;;5038260;28;20040;-57
2022/01/01 02:21:12;;;;;;;4.63;4.22;;;;;;;;;;5039420;28;20032;-57
2022/01/01 02:23:42;;;;;;;4.63;4.22;;;;;;;;;;5036667;28;20471;-58
2022/01/01 02:26:11;;;;;;;4.90;4.25;;;;;;;;;;5040723;28;20090;-58
2022/01/01 02:28:39;;;;;;;4.45;3.60;;;;;;;;;;5037062;28;20454;-57
2022/01/01 02:31:05;;;;;;;4.40;3.88;;;;;;;;;;5039142;28;20036;-58
2022/01/01 02:33:32;;;;;;;10.85;5.80;;;;;;;;;;5039154;28;20037;-58
2022/01/01 02:35:57;;;;;;;8.25;5.35;;;;;;;;;;5038174;28;20037;-58
2022/01/01 02:38:23;;;;;;;4.93;4.38;;;;;;;;;;5038759;28;20041;-58
2022/01/01 02:40:48;;;;;;;6.72;4.63;;;;;;;;;;5037511;28;20041;-58
2022/01/01 02:43:14;;;;;;;5.78;5.28;;;;;;;;;;5038166;28;20033;-62
2022/01/01 02:45:40;;;;;;;5.03;4.40;;;;;;;;;;5038003;28;20039;-63
2022/01/01 02:48:06;;;;;;;4.88;4.38;;;;;;;;;;5038008;28;20025;-63
2022/01/01 02:50:31;;;;;;;9.75;5.20;;;;;;;;;;5036744;28;20036;-63
2022/01/01 02:52:56;;;;;;;6.15;5.50;;;;;;;;;;5037383;28;20105;-63
2022/01/01 02:55:22;;;;;;;5.22;4.72;;;;;;;;;;5036308;28;20531;-63
2022/01/01 02:57:47;;;;;;;8.68;5.65;;;;;;;;;;5029604;28;20374;-63
2022/01/01 03:00:14;;;;;;;5.20;4.70;;;;;;;;;;5039876;28;20116;-63
2022/01/01 03:02:40;;;;;;;5.10;4.28;;;;;;;;;;5046005;28;20463;-63
2022/01/01 03:05:06;;;;;;;5.60;5.10;;;;;;;;;;5039880;28;20128;-63
2022/01/01 03:07:34;;;;;;;6.43;5.82;;;;;;;;;;5037497;28;20143;-63
2022/01/01 03:10:00;;;;;;;5.97;5.38;;;;;;;;;;5040560;28;20604;-63
2022/01/01 03:12:25;;;;;;;5.95;4.93;;;;;;;;;;5038287;28;20477;-62
2022/01/01 03:14:50;;;;;;;5.97;5.32;;;;;;;;;;5038409;28;20037;-63
2022/01/01 03:17:16;;;;;;;4.97;4.28;;;;;;;;;;5038861;28;20584;-62
2022/01/01 03:19:42;;;;;;;6.75;4.53;;;;;;;;;;5038039;28;20056;-63
2022/01/01 03:22:07;;;;;;;6.55;5.38;;;;;;;;;;5038216;28;20021;-63
2022/01/01 03:24:33;;;;;;;5.95;5.32;;;;;;;;;;5038455;28;20033;-63
2022/01/01 03:27:00;;;;;;;4.70;4.30;;;;;;;;;;5036989;28;20033;-63
2022/01/01 03:29:28;;;;;;;5.65;5.10;;;;;;;;;;5036021;28;20044;-62
2022/01/01 03:31:54;;;;;;;9.13;5.68;;;;;;;;;;5039329;28;20033;-62
2022/01/01 03:34:21;;;;;;;6.55;5.40;;;;;;;;;;5035137;28;20040;-62
2022/01/01 03:36:47;;;;;;;6.60;6.00;;;;;;;;;;5038896;28;20032;-62
2022/01/01 03:39:12;;;;;;;5.03;4.53;;;;;;;;;;5037487;28;20033;-62
2022/01/01 03:41:38;;;;;;;5.28;4.78;;;;;;;;;;5038965;28;20123;-63
2022/01/01 03:44:03;;;;;;;5.43;4.93;;;;;;;;;;5035713;28;20463;-62
2022/01/01 03:46:29;;;;;;;4.80;4.32;;;;;;;;;;5037851;28;20083;-61
2022/01/01 03:48:54;;;;;;;5.78;5.18;;;;;;;;;;5035380;28;20104;-62
2022/01/01 03:51:19;;;;;;;5.47;4.97;;;;;;;;;;5036951;28;20025;-62
2022/01/01 03:53:45;;;;;;;5.57;4.63;;;;;;;;;;5040135;28;20043;-61
2022/01/01 03:56:11;;;;;;;4.78;4.28;;;;;;;;;;5040260;28;20517;-63
2022/01/01 03:58:37;;;;;;;5.85;5.00;;;;;;;;;;5040192;28;20032;-62
2022/01/01 04:01:03;;;;;;;5.38;4.38;;;;;;;;;;5042632;28;20029;-62
2022/01/01 04:03:28;;;;;;;4.85;4.35;;;;;;;;;;5038617;28;20035;-58
2022/01/01 04:05:53;;;;;;;7.65;4.88;;;;;;;;;;5042057;28;20025;-58
2022/01/01 04:08:19;;;;;;;4.88;4.10;;;;;;;;;;5040075;28;20096;-57
2022/01/01 04:10:44;;;;;;;5.10;4.63;;;;;;;;;;5040228;28;20054;-58
2022/01/01 04:13:11;;;;;;;4.70;4.20;;;;;;;;;;5038588;28;20036;-58
2022/01/01 04:15:38;;;;;;;5.40;4.43;;;;;;;;;;5039877;28;20108;-58
2022/01/01 04:18:10;;;;;;;4.82;4.32;;;;;;;;;;5036554;28;20068;-58
2022/01/01 04:20:35;;;;;;;4.72;4.30;;;;;;;;;;5041665;28;20089;-58
2022/01/01 04:23:01;;;;;;;4.93;4.47;;;;;;;;;;5042343;28;20113;-59
2022/01/01 04:25:28;;;;;;;4.13;3.72;;;;;;;;;;5039898;28;20159;-59
2022/01/01 04:27:55;;;;;;;4.78;4.28;;;;;;;;;;5039795;28;20036;-58
2022/01/01 04:30:21;;;;;;;6.57;5.97;;;;;;;;;;5040195;28;20504;-59
2022/01/01 04:32:47;;;;;;;4.95;4.28;;;;;;;;;;5042593;28;20048;-58
2022/01/01 04:35:12;;;;;;;5.32;4.60;;;;;;;;;;5040702;28;20036;-59
2022/01/01 04:37:38;;;;;;;4.50;4.10;;;;;;;;;;5037227;28;20037;-58
2022/01/01 04:40:08;;;;;;;4.47;4.07;;;;;;;;;;5040755;28;20098;-59
2022/01/01 04:42:33;;;;;;;4.53;3.97;;;;;;;;;;5040350;28;20056;-58
2022/01/01 04:44:59;;;;;;;5.60;4.78;;;;;;;;;;5037939;28;20446;-59
2022/01/01 04:47:25;;;;;;;5.03;4.50;;;;;;;;;;5038181;28;20076;-58
2022/01/01 04:49:51;;;;;;;5.13;4.63;;;;;;;;;;5041595;28;20374;-58
2022/01/01 04:52:17;;;;;;;4.72;4.32;;;;;;;;;;5036812;28;20028;-58
2022/01/01 04:54:44;;;;;;;4.30;3.90;;;;;;;;;;5038005;28;20115;-58
2022/01/01 04:57:10;;;;;;;6.03;5.45;;;;;;;;;;5036907;28;20033;-58
2022/01/01 04:59:36;;;;;;;6.63;5.60;;;;;;;;;;5039903;28;20068;-59
2022/01/01 05:02:03;;;;;;;7.00;6.13;;;;;;;;;;5038812;28;20033;-58
2022/01/01 05:04:28;;;;;;;4.35;3.95;;;;;;;;;;5042588;28;20104;-58
2022/01/01 05:06:54;;;;;;;6.53;5.82;;;;;;;;;;5040183;28;20037;-57
2022/01/01 05:09:20;;;;;;;8.77;5.93;;;;;;;;;;5039518;28;20113;-57
2022/01/01 05:11:46;;;;;;;6.90;5.95;;;;;;;;;;5039404;28;20116;-57
2022/01/01 05:14:12;;;;;;;5.70;4.88;;;;;;;;;;5039668;28;20079;-58
2022/01/01 05:16:38;;;;;;;5.18;4.68;;;;;;;;;;5041228;28;20033;-58
2022/01/01 05:19:04;;;;;;;5.25;4.70;;;;;;;;;;5040032;28;20029;-58
2022/01/01 05:21:32;;;;;;;6.00;5.28;;;;;;;;;;5040102;28;20083;-58
2022/01/01 05:23:58;;;;;;;4.47;3.97;;;;;;;;;;5040665;28;20088;-58
2022/01/01 05:26:24;;;;;;;6.60;5.00;;;;;;;;;;5039020;28;20494;-58
2022/01/01 05:28:49;;;;;;;6.25;5.63;;;;;;;;;;5037824;28;20147;-58
2022/01/01 05:31:21;;;;;;;6.45;4.00;;;;;;;;;;5041485;28;20116;-62
2022/01/01 05:33:47;;;;;;;6.57;5.93;;;;;;;;;;5040458;28;20037;-63
2022/01/01 05:36:16;;;;;;;5.53;5.03;;;;;;;;;;5040732;28;20113;-63
2022/01/01 05:38:43;;;;;;;4.45;3.95;;;;;;;;;;5040641;28;20103;-63
2022/01/01 05:41:08;;;;;;;5.25;4.65;;;;;;;;;;5040928;28;20466;-62
2022/01/01 05:43:34;;;;;;;5.90;3.88;;;;;;;;;;5039419;28;20024;-62
2022/01/01 05:45:59;;;;;;;6.80;5.22;;;;;;;;;;5038420;28;20390;-62
2022/01/01 05:48:25;;;;;;;6.35;5.72;;;;;;;;;;5040060;28;20391;-62
2022/01/01 05:50:50;;;;;;;5.68;4.75;;;;;;;;;;5040280;28;20041;-63
2022/01/01 05:53:16;;;;;;;6.25;4.65;;;;;;;;;;5037501;28;20053;-62
2022/01/01 05:55:42;;;;;;;5.05;4.57;;;;;;;;;;5039884;28;20072;-62
2022/01/01 05:58:07;;;;;;;6.72;5.38;;;;;;;;;;5041831;28;20037;-62
2022/01/01 06:00:34;;;;;;;5.35;4.85;;;;;;;;;;5039893;28;20037;-63
2022/01/01 06:03:00;;;;;;;4.50;4.00;;;;;;;;;;5046998;28;20035;-63
2022/01/01 06:05:26;;;;;;;5.13;4.63;;;;;;;;;;5038810;28;20026;-63
2022/01/01 06:07:54;;;;;;;4.53;4.13;;;;;;;;;;5041468;28;20132;-62
2022/01/01 06:10:19;;;;;;;4.88;4.45;;;;;;;;;;5039718;28;20486;-63
2022/01/01 06:12:45;;;;;;;6.18;5.57;;;;;;;;;;5038517;28;20049;-63
2022/01/01 06:15:10;;;;;;;6.45;5.80;;;;;;;;;;5041286;28;20044;-62
2022/01/01 06:17:36;;;;;;;5.50;4.22;;;;;;;;;;5036968;28;20151;-63
2022/01/01 06:20:03;;;;;;;5.70;5.03;;;;;;;;;;5037012;28;20591;-63
2022/01/01 06:22:28;;;;;;;7.15;4.95;;;;;;;;;;5038730;28;20048;-64
2022/01/01 06:24:53;;;;;;;5.70;5.07;;;;;;;;;;5038320;28;20020;-63
2022/01/01 06:27:19;;;;;;;5.38;4.88;;;;;;;;;;5038883;28;20052;-61
2022/01/01 06:29:45;;;;;;;5.90;5.30;;;;;;;;;;5040033;28;20026;-63
2022/01/01 06:32:11;;;;;;;5.07;4.57;;;;;;;;;;5040169;28;20033;-63
2022/01/01 06:34:37;;;;;;;5.50;5.00;;;;;;;;;;5040180;28;20082;-61
2022/01/01 06:37:02;;;;;;;9.65;5.78;;;;;;;;;;5040199;28;20041;-63
2022/01/01 06:39:27;;;;;;;12.15;5.68;;;;;;;;;;5037893;28;20036;-63
2022/01/01 06:41:53;;;;;;;9.35;4.90;;;;;;;;;;5037377;28;20032;-63
2022/01/01 06:44:18;;;;;;;9.07;6.35;;;;;;;;;;5037044;28;20029;-63
2022/01/01 06:46:44;;;;;;;6.78;4.43;;;;;;;;;;5039230;28;20065;-62
2022/01/01 06:49:09;;;;;;;5.55;5.00;;;;;;;;;;5039797;28;20029;-61
2022/01/01 06:51:36;;;;;;;6.97;4.97;;;;;;;;;;5037906;28;20113;-62
2022/01/01 06:54:02;;;;;;;5.13;4.63;;;;;;;;;;5039342;28;20051;-62
2022/01/01 06:56:28;;;;;;;17.50;5.38;;;;;;;;;;5037983;28;20029;-62
2022/01/01 06:58:53;;;;;;;5.55;4.85;;;;;;;;;;5037540;28;20091;-62
2022/01/01 07:01:18;;;;;;;6.60;4.22;;;;;;;;;;5035722;28;20140;-61
2022/01/01 07:03:44;;;;;;;4.50;4.10;;;;;;;;;;5035805;28;20044;-62
2022/01/01 07:06:09;;;;;;;4.97;4.47;;;;;;;;;;5037935;28;20057;-61
2022/01/01 07:08:35;;;;;;;6.60;5.47;;;;;;;;;;5038463;28;20021;-61
2022/01/01 07:11:00;;;;;;;5.30;4.80;;;;;;;;;;5038809;28;21060;-62
2022/01/01 07:13:25;;;;;;;5.05;4.28;;;;;;;;;;5037562;28;20056;-62
2022/01/01 07:15:52;;;;;;;5.78;4.47;;;;;;;;;;5037310;28;20037;-61
2022/01/01 07:18:17;;;;;;;5.95;4.80;;;;;;;;;;5038643;28;20020;-63
2022/01/01 07:20:43;;;;;;;13.60;5.22;;;;;;;;;;5036894;28;20095;-63
2022/01/01 07:23:09;;;;;;;7.47;4.97;;;;;;;;;;5038469;28;20026;-63
2022/01/01 07:25:35;;;;;;;6.13;5.53;;;;;;;;;;5037743;28;20462;-62
2022/01/01 07:28:00;;;;;;;5.85;5.25;;;;;;;;;;5036117;28;20087;-62
2022/01/01 07:30:26;;;;;;;5.57;4.97;;;;;;;;;;5047423;28;20060;-62
2022/01/01 07:32:51;;;;;;;6.60;5.22;;;;;;;;;;5039987;28;20048;-62
2022/01/01 07:35:18;;;;;;;5.03;4.43;;;;;;;;;;5039836;28;20792;-61
2022/01/01 07:37:44;;;;;;;6.07;4.72;;;;;;;;;;5042901;28;20048;-62
2022/01/01 07:40:12;;;;;;;4.80;4.22;;;;;;;;;;5036982;28;20026;-60
2022/01/01 07:42:38;;;;;;;11.13;4.40;;;;;;;;;;5041433;28;20044;-62
2022/01/01 07:45:05;;;;;;;5.30;4.80;;;;;;;;;;5043470;28;20440;-62
2022/01/01 07:47:30;;;;;;;5.13;4.63;;;;;;;;;;5040804;28;20387;-62
2022/01/01 07:49:56;;;;;;;5.60;5.05;;;;;;;;;;5040054;28;20021;-62
2022/01/01 07:52:21;;;;;;;5.22;4.50;;;;;;;;;;5039445;28;20029;-62
2022/01/01 07:54:47;;;;;;;4.95;4.50;;;;;;;;;;5040491;28;20029;-61
2022/01/01 07:57:12;;;;;;;6.70;5.35;;;;;;;;;;5038579;28;20076;-61
2022/01/01 07:59:37;;;;;;;7.63;5.20;;;;;;;;;;5042442;28;20052;-61
2022/01/01 08:02:03;;;;;;;8.60;5.47;;;;;;;;;;5040427;28;20095;-60
2022/01/01 08:04:28;;;;;;;4.85;4.43;;;;;;;;;;5040737;28;20052;-61
2022/01/01 08:06:54;;;;;;;6.15;5.05;;;;;;;;;;5043187;28;20182;-62
2022/01/01 08:09:19;;;;;;;4.78;4.28;;;;;;;;;;5041001;28;20017;-62
2022/01/01 08:11:44;;;;;;;4.45;4.05;;;;;;;;;;5039493;28;20041;-62
2022/01/01 08:14:10;;;;;;;5.57;4.68;;;;;;;;;;5039373;28;20460;-62
2022/01/01 08:16:58;;;;;;;4.70;4.30;;;;;;;;;;5040938;28;20409;-62
2022/01/01 08:19:23;;;;;;;6.03;4.88;;;;;;;;;;5039865;28;20033;-62
2022/01/01 08:21:49;;;;;;;4.32;3.92;;;;;;;;;;5037891;28;20029;-62
2022/01/01 08:24:15;;;;;;;4.63;4.00;;;;;;;;;;5041347;28;20047;-61
2022/01/01 08:26:40;;;;;;;4.82;4.28;;;;;;;;;;5041753;28;20112;-62
2022/01/01 08:29:05;;;;;;;4.70;4.30;;;;;;;;;;5044975;28;20055;-62
2022/01/01 08:31:31;;;;;;;4.93;4.53;;;;;;;;;;5039129;28;20032;-62
2022/01/01 08:33:56;;;;;;;5.32;4.82;;;;;;;;;;5039390;28;20499;-61
2022/01/01 08:36:22;;;;;;;4.72;4.25;;;;;;;;;;5042211;28;20033;-62
2022/01/01 08:38:48;;;;;;;5.25;4.75;;;;;;;;;;5042799;28;20099;-62
2022/01/01 08:41:13;;;;;;;4.93;4.47;;;;;;;;;;5040305;28;20037;-62
2022/01/01 08:43:38;;;;;;;6.20;5.05;;;;;;;;;;5040508;28;20155;-61
2022/01/01 08:46:04;;;;;;;4.85;3.80;;;;;;;;;;5041004;28;20072;-63
2022/01/01 08:48:29;;;;;;;5.22;4.57;;;;;;;;;;5041569;28;20033;-63
2022/01/01 08:50:54;;;;;;;4.78;4.20;;;;;;;;;;5039226;28;20124;-61
2022/01/01 08:53:20;;;;;;;5.25;4.75;;;;;;;;;;5037215;28;20068;-60
2022/01/01 08:55:45;;;;;;;4.22;3.72;;;;;;;;;;5038291;28;20099;-61
2022/01/01 08:58:11;;;;;;;5.03;4.53;;;;;;;;;;5037807;28;20037;-61
2022/01/01 09:00:36;;;;;;;5.50;4.60;;;;;;;;;;5038972;28;20037;-61
2022/01/01 09:03:01;;;;;;;5.75;4.22;;;;;;;;;;5042040;28;20045;-62
2022/01/01 09:05:27;;;;;;;8.90;5.00;;;;;;;;;;5040290;28;20095;-62
2022/01/01 09:07:53;;;;;;;4.20;3.80;;;;;;;;;;5037311;28;20042;-62
2022/01/01 09:10:20;;;;;;;6.72;5.57;;;;;;;;;;5039525;28;20675;-62
2022/01/01 09:12:46;;;;;;;5.55;5.03;;;;;;;;;;5040412;28;20044;-63
2022/01/01 09:15:11;;;;;;;5.05;4.55;;;;;;;;;;5039812;28;20037;-63
2022/01/01 09:17:37;;;;;;;5.63;4.72;;;;;;;;;;5039779;28;20057;-63
2022/01/01 09:20:03;;;;;;;6.05;5.45;;;;;;;;;;5041977;28;20029;-61
2022/01/01 09:22:28;;;;;;;5.30;4.80;;;;;;;;;;5039284;28;20041;-62
2022/01/01 09:24:54;;;;;;;7.90;5.35;;;;;;;;;;5040263;28;20040;-63
2022/01/01 09:27:20;;;;;;;6.68;4.55;;;;;;;;;;5039510;28;20017;-63
2022/01/01 09:29:46;;;;;;;5.20;4.15;;;;;;;;;;5037980;28;20534;-63
2022/01/01 09:32:11;;;;;;;5.90;5.40;;;;;;;;;;5039459;28;20061;-62
2022/01/01 09:34:37;;;;;;;5.97;4.28;;;;;;;;;;5036263;28;20033;-62
2022/01/01 09:37:03;;;;;;;5.40;4.90;;;;;;;;;;5037698;28;20477;-62
2022/01/01 09:39:29;;;;;;;6.82;5.78;;;;;;;;;;5040029;28;20044;-62
2022/01/01 09:41:55;;;;;;;8.07;6.55;;;;;;;;;;5038648;28;20041;-63
2022/01/01 09:44:21;;;;;;;5.90;5.30;;;;;;;;;;5036145;28;20025;-63
2022/01/01 09:46:49;;;;;;;5.95;5.38;;;;;;;;;;5037688;28;20351;-62
2022/01/01 09:49:16;;;;;;;5.82;5.28;;;;;;;;;;5037661;28;20033;-63
2022/01/01 09:51:42;;;;;;;5.25;4.75;;;;;;;;;;5040272;28;20852;-63
2022/01/01 09:54:08;;;;;;;4.45;4.05;;;;;;;;;;5038943;28;20024;-64
2022/01/01 09:56:34;;;;;;;5.22;4.72;;;;;;;;;;5040860;28;20044;-64
2022/01/01 09:59:00;;;;;;;8.63;5.32;;;;;;;;;;5035180;28;20072;-64
2022/01/01 10:01:25;;;;;;;5.85;5.25;;;;;;;;;;5041301;28;20064;-64
2022/01/01 10:03:52;;;;;;;6.53;5.93;;;;;;;;;;5039445;28;20072;-64
2022/01/01 10:06:22;;;;;;;7.57;5.68;;;;;;;;;;5039187;28;20033;-63
2022/01/01 10:09:03;;;;;;;6.07;4.68;;;;;;;;;;5039451;28;20378;-63
2022/01/01 10:11:30;;;;;;;7.00;5.35;;;;;;;;;;5037639;28;20120;-63
2022/01/01 10:13:55;;;;;;;4.47;4.07;;;;;;;;;;5037126;28;20060;-64
2022/01/01 10:16:21;;;;;;;4.40;4.00;;;;;;;;;;5035824;28;20071;-64
2022/01/01 10:18:50;;;;;;;4.95;4.45;;;;;;;;;;5035558;28;20045;-63
2022/01/01 10:21:20;;;;;;;4.72;4.13;;;;;;;;;;5038649;28;20030;-63
2022/01/01 10:23:49;;;;;;;4.88;4.40;;;;;;;;;;5036732;28;20061;-62
2022/01/01 10:29:16;;;;;;;4.60;4.07;;;;;;;;;;5036230;28;20029;-63
2022/01/01 10:32:01;;;;;;;5.82;5.32;;;;;;;;;;5039749;28;20064;-63
2022/01/01 10:34:35;;;;;;;5.65;5.05;;;;;;;;;;5038073;28;20387;-63
2022/01/01 10:37:02;;;;;;;4.95;4.15;;;;;;;;;;5039311;28;20037;-63
2022/01/01 10:39:28;;;;;;;7.43;5.18;;;;;;;;;;5038842;28;20110;-63
2022/01/01 10:41:59;;;;;;;5.53;4.88;;;;;;;;;;5039152;28;20072;-62
2022/01/01 10:44:38;;;;;;;4.45;4.05;;;;;;;;;;5039377;28;20036;-63
2022/01/01 10:47:20;;;;;;;5.80;4.85;;;;;;;;;;5037849;28;20167;-63
2022/01/01 10:52:23;;;;;;;5.70;4.97;;;;;;;;;;5038155;28;20679;-62
2022/01/01 10:54:57;;;;;;;14.40;4.60;;;;;;;;;;5045669;28;20041;-62
2022/01/01 10:57:34;;;;;;;4.75;4.30;;;;;;;;;;5036908;28;20043;-63
2022/01/01 11:00:14;;;;;;;5.10;4.28;;;;;;;;;;5038421;28;20472;-62
2022/01/01 11:02:43;;;;;;;4.80;4.30;;;;;;;;;;5035496;28;20354;-63
2022/01/01 11:05:09;;;;;;;4.97;4.47;;;;;;;;;;5037941;28;20063;-61
2022/01/01 11:07:35;;;;;;;4.88;4.45;;;;;;;;;;5038986;28;20030;-62
2022/01/01 11:10:01;;;;;;;6.35;5.40;;;;;;;;;;5038163;28;20119;-60
2022/01/01 11:12:28;;;;;;;6.07;5.35;;;;;;;;;;5037236;28;20071;-62
2022/01/01 11:14:55;;;;;;;12.82;4.82;;;;;;;;;;5039334;28;20029;-62
2022/01/01 11:17:22;;;;;;;6.20;4.18;;;;;;;;;;5037922;28;20035;-61
2022/01/01 11:19:48;;;;;;;5.55;5.05;;;;;;;;;;5037295;28;20505;-60
2022/01/01 11:22:14;;;;;;;4.47;4.05;;;;;;;;;;5036785;28;20049;-60
2022/01/01 11:24:41;;;;;;;5.50;4.75;;;;;;;;;;5037191;28;20029;-61
2022/01/01 11:27:07;;;;;;;6.20;4.80;;;;;;;;;;5035293;28;20029;-61
2022/01/01 11:29:36;;;;;;;5.38;4.88;;;;;;;;;;5036220;28;20048;-62
2022/01/01 11:32:05;;;;;;;5.63;5.13;;;;;;;;;;5039064;28;20399;-62
2022/01/01 11:34:31;;;;;;;5.15;4.65;;;;;;;;;;5035653;28;20032;-62
2022/01/01 11:36:57;;;;;;;5.97;4.35;;;;;;;;;;5039013;28;20025;-61
2022/01/01 11:39:25;;;;;;;5.30;4.78;;;;;;;;;;5038750;28;20024;-62
2022/01/01 11:41:52;;;;;;;5.60;5.10;;;;;;;;;;5039039;28;20078;-63
2022/01/01 11:44:30;;;;;;;5.80;5.20;;;;;;;;;;5036302;28;20479;-61
2022/01/01 11:47:13;;;;;;;5.85;5.07;;;;;;;;;;5036458;28;20090;-60
2022/01/01 11:49:38;;;;;;;5.45;4.28;;;;;;;;;;5039110;28;20075;-61
2022/01/01 11:52:04;;;;;;;5.60;4.55;;;;;;;;;;5036052;28;20471;-59
2022/01/01 11:54:35;;;;;;;5.93;4.60;;;;;;;;;;5027868;28;20053;-59
2022/01/01 11:57:27;;;;;;;5.47;4.70;;;;;;;;;;5039356;28;20029;-60
2022/01/01 12:00:01;;;;;;;6.70;4.70;;;;;;;;;;5038245;28;20555;-59
2022/01/01 12:02:26;;;;;;;5.03;4.50;;;;;;;;;;5038788;28;20037;-59
2022/01/01 12:05:05;;;;;;;6.05;4.97;;;;;;;;;;5038643;28;20033;-59
2022/01/01 12:07:30;;;;;;;6.38;5.43;;;;;;;;;;5037978;28;20613;-59
2022/01/01 12:10:02;;;;;;;6.40;4.75;;;;;;;;;;5036239;28;20127;-59
2022/01/01 12:12:57;;;;;;;5.60;4.68;;;;;;;;;;5038527;28;20140;-59
2022/01/01 12:15:24;;;;;;;6.20;4.28;;;;;;;;;;5035089;28;20046;-59
2022/01/01 12:17:53;;;;;;;4.82;4.32;;;;;;;;;;5040504;28;20064;-59
2022/01/01 12:20:25;;;;;;;5.38;4.88;;;;;;;;;;5039885;28;20116;-59
2022/01/01 12:22:51;;;;;;;6.13;5.25;;;;;;;;;;5040083;28;20045;-59
2022/01/01 12:25:21;;;;;;;5.35;4.78;;;;;;;;;;5041441;28;20048;-59
2022/01/01 12:27:48;;;;;;;4.75;4.32;;;;;;;;;;5040360;28;20025;-59
2022/01/01 12:30:28;;;;;;;5.13;4.63;;;;;;;;;;5041858;28;20042;-59
2022/01/01 12:32:54;;;;;;;5.15;4.10;;;;;;;;;;5039688;28;20059;-59
2022/01/01 12:35:41;;;;;;;11.63;4.57;;;;;;;;;;5040508;28;20095;-58
2022/01/01 12:38:09;;;;;;;4.95;4.45;;;;;;;;;;5037467;28;20048;-58
2022/01/01 12:40:35;;;;;;;8.30;5.55;;;;;;;;;;5040868;28;20136;-59
2022/01/01 12:43:09;;;;;;;5.25;4.75;;;;;;;;;;5040628;28;20041;-59
2022/01/01 12:45:36;;;;;;;10.00;4.95;;;;;;;;;;5037648;28;20033;-59
2022/01/01 12:48:02;;;;;;;6.10;5.50;;;;;;;;;;5039218;28;20126;-59
2022/01/01 12:50:28;;;;;;;4.65;4.25;;;;;;;;;;5037086;28;20030;-59
2022/01/01 12:52:54;;;;;;;5.55;4.93;;;;;;;;;;5038342;28;20045;-58
2022/01/01 12:55:24;;;;;;;6.95;4.88;;;;;;;;;;5040345;28;20044;-59
2022/01/01 12:58:04;;;;;;;4.50;4.00;;;;;;;;;;5039467;28;20044;-58
2022/01/01 13:00:30;;;;;;;4.85;4.15;;;;;;;;;;5036829;28;20419;-59
2022/01/01 13:02:56;;;;;;;6.25;5.65;;;;;;;;;;5038625;28;20166;-59
2022/01/01 13:05:23;;;;;;;6.25;4.57;;;;;;;;;;5039047;28;20051;-59
2022/01/01 13:07:50;;;;;;;6.07;4.78;;;;;;;;;;5040045;28;20074;-58
2022/01/01 13:10:16;;;;;;;5.53;5.00;;;;;;;;;;5039882;28;20055;-59
2022/01/01 13:12:41;;;;;;;4.43;4.03;;;;;;;;;;5040285;28;20049;-59
2022/01/01 13:15:07;;;;;;;5.63;5.13;;;;;;;;;;5039123;28;20033;-58
2022/01/01 13:17:32;;;;;;;4.50;4.10;;;;;;;;;;5040514;28;20083;-58
2022/01/01 13:19:58;;;;;;;6.90;4.15;;;;;;;;;;5037998;28;20134;-59
2022/01/01 13:22:30;;;;;;;5.07;4.57;;;;;;;;;;5039871;28;20116;-59
2022/01/01 13:24:56;;;;;;;6.22;4.82;;;;;;;;;;5038084;28;20025;-58
2022/01/01 13:27:27;;;;;;;5.18;4.57;;;;;;;;;;5038031;28;20060;-59
2022/01/01 13:29:53;;;;;;;5.72;5.13;;;;;;;;;;5038574;28;20033;-59
2022/01/01 13:32:19;;;;;;;5.70;4.25;;;;;;;;;;5038976;28;20033;-58
2022/01/01 13:34:50;;;;;;;9.25;4.18;;;;;;;;;;5036806;28;20429;-59
2022/01/01 13:37:21;;;;;;;;;;;;;;;;;;5040788;28;20064;-59
2022/01/01 13:39:46;;;;;;;3.90;3.60;;;;;;;;;;5040013;28;19967;-59
2022/01/01 13:42:16;;;;;;;5.18;4.68;;;;;;;;;;5039007;28;20026;-59
2022/01/01 13:44:43;;;;;;;4.82;4.32;;;;;;;;;;5037991;28;20048;-59
2022/01/01 13:47:14;;;;;;;5.60;5.05;;;;;;;;;;5037956;28;20112;-58
2022/01/01 13:49:41;;;;;;;5.25;4.70;;;;;;;;;;5040640;28;20029;-59
2022/01/01 13:52:07;;;;;;;5.78;5.28;;;;;;;;;;5039151;28;20366;-59
2022/01/01 13:54:37;;;;;;;5.10;4.35;;;;;;;;;;5038297;28;20029;-59
2022/01/01 13:57:07;;;;;;;5.22;4.72;;;;;;;;;;5035627;28;20065;-59
2022/01/01 13:59:34;;;;;;;5.75;5.00;;;;;;;;;;5038798;28;20071;-59
2022/01/01 14:02:04;;;;;;;5.38;4.85;;;;;;;;;;5038738;28;20037;-58
2022/01/01 14:04:30;;;;;;;5.40;4.90;;;;;;;;;;5039463;28;20044;-59
2022/01/01 14:07:12;;;;;;;5.70;5.15;;;;;;;;;;5040218;28;20035;-59
2022/01/01 14:10:07;;;;;;;4.43;4.03;;;;;;;;;;5035861;28;20472;-59
2022/01/01 14:12:35;;;;;;;4.85;4.45;;;;;;;;;;5033586;28;20049;-59
2022/01/01 14:15:10;;;;;;;6.50;5.15;;;;;;;;;;5036619;28;20033;-59
2022/01/01 14:17:51;;;;;;;7.03;5.38;;;;;;;;;;5038615;28;20362;-58
2022/01/01 14:20:25;;;;;;;6.10;4.72;;;;;;;;;;5036540;28;20048;-58
2022/01/01 14:22:51;;;;;;;5.40;4.90;;;;;;;;;;5040165;28;20491;-59
2022/01/01 14:25:18;;;;;;;5.57;5.07;;;;;;;;;;5040373;28;20160;-58
2022/01/01 14:27:44;;;;;;;4.85;4.32;;;;;;;;;;5036999;28;20071;-58
2022/01/01 14:30:09;;;;;;;5.68;5.15;;;;;;;;;;5039843;28;20483;-59
2022/01/01 14:32:36;;;;;;;5.30;4.80;;;;;;;;;;5038025;28;20048;-59
2022/01/01 14:35:03;;;;;;;5.85;4.68;;;;;;;;;;5040127;28;20152;-58
2022/01/01 14:37:30;;;;;;;4.93;4.45;;;;;;;;;;5033828;28;20036;-59
2022/01/01 14:39:56;;;;;;;5.68;5.18;;;;;;;;;;5028607;28;20061;-58
2022/01/01 14:42:22;;;;;;;5.50;5.00;;;;;;;;;;5040175;28;20106;-59
2022/01/01 14:44:47;;;;;;;6.38;4.97;;;;;;;;;;5035513;28;20386;-59
2022/01/01 14:47:32;;;;;;;5.75;5.15;;;;;;;;;;5038581;28;20037;-59
2022/01/01 14:50:01;;;;;;;5.28;4.72;;;;;;;;;;5038572;28;20025;-58
2022/01/01 14:52:41;;;;;;;5.25;4.78;;;;;;;;;;5035968;28;20083;-59
2022/01/01 14:55:13;;;;;;;4.53;4.13;;;;;;;;;;5039382;28;20039;-59